createdAt,value
2018-08-13T00:00:53.870Z,1.80
2018-08-13T00:03:22.008Z,1.60
2018-08-13T00:05:50.190Z,1.70
2018-08-13T00:08:18.371Z,2.83
2018-08-13T00:10:46.861Z,2.00
2018-08-13T00:13:14.994Z,1.87
2018-08-13T00:15:43.174Z,1.60
2018-08-13T00:18:12.270Z,1.50
2018-08-13T00:20:40.438Z,1.60
2018-08-13T00:23:08.935Z,2.50
2018-08-13T00:25:37.091Z,1.67
2018-08-13T00:28:06.763Z,2.43
2018-08-13T00:30:34.952Z,1.70
2018-08-13T00:33:03.074Z,1.70
2018-08-13T00:35:31.215Z,2.63
2018-08-13T00:37:59.342Z,2.27
2018-08-13T00:40:27.547Z,1.67
2018-08-13T00:42:55.697Z,1.80
2018-08-13T00:45:23.858Z,2.03
2018-08-13T00:47:51.972Z,2.20
2018-08-13T00:50:20.111Z,2.23
2018-08-13T00:52:48.230Z,2.10
2018-08-13T00:55:16.363Z,2.03
2018-08-13T00:57:44.469Z,1.70
2018-08-13T01:00:16.201Z,1.97
2018-08-13T01:02:44.907Z,1.70
2018-08-13T01:05:13.402Z,1.67
2018-08-13T01:07:41.603Z,2.57
2018-08-13T01:10:12.126Z,2.00
2018-08-13T01:12:40.562Z,2.03
2018-08-13T01:15:10.746Z,3.27
2018-08-13T01:17:39.572Z,2.53
2018-08-13T01:20:09.694Z,1.90
2018-08-13T01:22:37.854Z,1.90
2018-08-13T01:25:07.483Z,4.70
2018-08-13T01:27:35.625Z,1.93
2018-08-13T01:30:03.855Z,2.20
2018-08-13T01:32:31.989Z,2.33
2018-08-13T01:35:00.148Z,1.93
2018-08-13T01:37:28.734Z,2.10
2018-08-13T01:39:57.642Z,1.97
2018-08-13T01:42:26.350Z,2.10
2018-08-13T01:44:54.498Z,3.13
2018-08-13T01:47:22.633Z,2.87
2018-08-13T01:49:50.771Z,2.40
2018-08-13T01:52:19.418Z,2.40
2018-08-13T01:54:47.541Z,2.43
2018-08-13T01:57:15.766Z,2.60
2018-08-13T01:59:43.890Z,2.53
2018-08-13T02:02:13.038Z,2.87
2018-08-13T02:04:41.182Z,3.27
2018-08-13T02:07:09.337Z,4.33
2018-08-13T02:09:39.195Z,3.50
2018-08-13T02:12:07.814Z,2.43
2018-08-13T02:14:35.946Z,2.40
2018-08-13T02:17:04.278Z,4.13
2018-08-13T02:19:32.683Z,2.47
2018-08-13T02:22:00.820Z,2.40
2018-08-13T02:24:29.234Z,2.83
2018-08-13T02:26:57.624Z,4.63
2018-08-13T02:29:26.502Z,3.57
2018-08-13T02:31:54.998Z,2.77
2018-08-13T02:34:23.123Z,3.07
2018-08-13T02:36:51.288Z,2.47
2018-08-13T02:39:19.537Z,4.40
2018-08-13T02:41:47.599Z,2.50
2018-08-13T02:44:15.743Z,4.17
2018-08-13T02:46:43.879Z,4.40
2018-08-13T02:49:11.987Z,4.13
2018-08-13T02:51:40.131Z,2.60
2018-08-13T02:54:08.296Z,3.57
2018-08-13T02:56:36.428Z,3.07
2018-08-13T02:59:04.546Z,3.63
2018-08-13T03:01:32.654Z,4.73
2018-08-13T03:04:00.790Z,4.60
2018-08-13T03:06:28.924Z,3.37
2018-08-13T03:08:57.347Z,3.30
2018-08-13T03:11:25.475Z,5.10
2018-08-13T03:13:53.647Z,5.83
2018-08-13T03:16:21.831Z,5.67
2018-08-13T03:18:50.029Z,4.97
2018-08-13T03:21:18.441Z,4.43
2018-08-13T03:23:46.600Z,4.57
2018-08-13T03:26:14.731Z,6.13
2018-08-13T03:28:42.845Z,3.80
2018-08-13T03:31:11.152Z,4.17
2018-08-13T03:33:39.283Z,3.40
2018-08-13T03:36:07.662Z,4.27
2018-08-13T03:38:35.789Z,3.70
2018-08-13T03:41:03.902Z,6.23
2018-08-13T03:43:32.043Z,2.97
2018-08-13T03:46:00.172Z,5.20
2018-08-13T03:48:28.286Z,4.30
2018-08-13T03:50:56.406Z,2.83
2018-08-13T03:53:24.585Z,3.13
2018-08-13T03:55:52.736Z,3.27
2018-08-13T03:58:20.944Z,4.63
2018-08-13T04:00:49.058Z,4.40
2018-08-13T04:03:17.200Z,2.90
2018-08-13T04:05:45.305Z,2.90
2018-08-13T04:08:13.436Z,8.40
2018-08-13T04:10:41.558Z,6.30
2018-08-13T04:13:09.689Z,4.43
2018-08-13T04:15:37.838Z,4.00
2018-08-13T04:18:07.262Z,2.83
2018-08-13T04:20:35.533Z,3.27
2018-08-13T04:23:03.658Z,5.37
2018-08-13T04:25:31.779Z,3.50
2018-08-13T04:27:59.934Z,3.70
2018-08-13T04:30:28.061Z,2.70
2018-08-13T04:32:56.279Z,4.87
2018-08-13T04:35:24.416Z,3.23
2018-08-13T04:37:52.550Z,5.17
2018-08-13T04:40:20.686Z,5.53
2018-08-13T04:42:48.850Z,5.63
2018-08-13T04:45:16.970Z,5.40
2018-08-13T04:47:55.656Z,6.03
2018-08-13T04:50:23.875Z,4.70
2018-08-13T04:52:52.051Z,5.03
2018-08-13T04:55:20.969Z,3.27
2018-08-13T04:57:49.103Z,6.07
2018-08-13T05:00:17.225Z,5.93
2018-08-13T05:02:45.354Z,4.97
2018-08-13T05:05:13.477Z,7.80
2018-08-13T05:07:41.616Z,3.30
2018-08-13T05:10:10.953Z,7.93
2018-08-13T05:12:39.802Z,5.33
2018-08-13T05:15:09.088Z,6.40
2018-08-13T05:17:37.263Z,4.13
2018-08-13T05:20:05.943Z,4.00
2018-08-13T05:22:34.186Z,7.37
2018-08-13T05:25:02.439Z,3.80
2018-08-13T05:27:30.711Z,3.80
2018-08-13T05:29:58.941Z,6.30
2018-08-13T05:32:27.099Z,3.80
2018-08-13T05:34:55.237Z,6.97
2018-08-13T05:37:23.351Z,5.00
2018-08-13T05:39:51.818Z,5.17
2018-08-13T05:42:19.972Z,4.47
2018-08-13T05:44:48.130Z,3.13
2018-08-13T05:47:16.289Z,4.03
2018-08-13T05:49:44.431Z,5.10
2018-08-13T05:52:12.591Z,2.43
2018-08-13T05:54:40.755Z,4.07
2018-08-13T05:57:08.893Z,3.70
2018-08-13T05:59:37.771Z,5.77
2018-08-13T06:02:06.039Z,4.73
2018-08-13T06:04:34.328Z,3.63
2018-08-13T06:07:02.451Z,5.77
2018-08-13T06:09:30.583Z,8.33
2018-08-13T06:11:58.695Z,4.10
2018-08-13T06:14:26.830Z,5.00
2018-08-13T06:16:54.958Z,3.60
2018-08-13T06:19:23.092Z,5.10
2018-08-13T06:21:51.214Z,5.33
2018-08-13T06:24:19.437Z,4.87
2018-08-13T06:26:47.658Z,2.77
2018-08-13T06:29:15.799Z,2.90
2018-08-13T06:31:43.923Z,2.23
2018-08-13T06:34:12.210Z,3.23
2018-08-13T06:36:40.326Z,2.70
2018-08-13T06:39:09.607Z,1.80
2018-08-13T06:41:37.729Z,2.63
2018-08-13T06:44:05.967Z,2.97
2018-08-13T06:46:34.438Z,3.83
2018-08-13T06:49:02.590Z,2.23
2018-08-13T06:51:30.721Z,2.33
2018-08-13T06:53:58.860Z,2.40
2018-08-13T06:56:26.984Z,1.47
2018-08-13T06:58:55.120Z,2.50
2018-08-13T07:01:23.240Z,1.77
2018-08-13T07:03:51.375Z,2.07
2018-08-13T07:06:19.506Z,2.73
2018-08-13T07:08:47.639Z,2.53
2018-08-13T07:11:15.753Z,2.10
2018-08-13T07:13:43.906Z,1.33
2018-08-13T07:16:12.329Z,1.83
2018-08-13T07:18:40.452Z,3.17
2018-08-13T07:21:08.616Z,2.63
2018-08-13T07:23:36.743Z,1.70
2018-08-13T07:26:04.871Z,2.77
2018-08-13T07:28:32.994Z,3.30
2018-08-13T07:31:01.127Z,1.90
2018-08-13T07:33:29.245Z,2.53
2018-08-13T07:35:57.369Z,1.57
2018-08-13T07:38:25.479Z,1.70
2018-08-13T07:40:53.678Z,2.53
2018-08-13T07:43:21.814Z,2.80
2018-08-13T07:45:49.959Z,1.50
2018-08-13T07:48:18.106Z,5.63
2018-08-13T07:50:46.232Z,2.33
2018-08-13T07:53:14.339Z,4.93
2018-08-13T07:55:42.484Z,2.23
2018-08-13T07:58:10.598Z,2.43
2018-08-13T08:00:38.734Z,1.87
2018-08-13T08:03:06.860Z,3.50
2018-08-13T08:05:34.994Z,2.80
2018-08-13T08:08:03.158Z,2.13
2018-08-13T08:10:31.335Z,2.67
2018-08-13T08:12:59.442Z,2.07
2018-08-13T08:15:27.558Z,2.00
2018-08-13T08:17:55.667Z,2.10
2018-08-13T08:20:23.800Z,1.73
2018-08-13T08:22:51.914Z,2.57
2018-08-13T08:25:21.431Z,3.30
2018-08-13T08:27:49.566Z,1.73
2018-08-13T08:30:17.706Z,4.40
2018-08-13T08:32:45.842Z,5.17
2018-08-13T08:35:15.339Z,5.90
2018-08-13T08:37:43.503Z,3.77
2018-08-13T08:40:16.411Z,3.73
2018-08-13T08:42:44.581Z,2.77
2018-08-13T08:45:14.702Z,7.77
2018-08-13T08:47:43.367Z,3.30
2018-08-13T08:50:11.654Z,6.77
2018-08-13T08:52:39.786Z,4.23
2018-08-13T08:55:07.945Z,4.47
2018-08-13T08:57:36.081Z,4.47
2018-08-13T09:00:05.234Z,2.70
2018-08-13T09:02:33.377Z,4.33
2018-08-13T09:05:01.499Z,2.60
2018-08-13T09:07:29.630Z,3.30
2018-08-13T09:09:57.759Z,2.10
2018-08-13T09:12:25.880Z,3.23
2018-08-13T09:14:53.995Z,2.40
2018-08-13T09:17:26.714Z,4.40
2018-08-13T09:21:08.186Z,4.40
2018-08-13T09:23:47.671Z,5.07
2018-08-13T09:26:27.162Z,4.87
2018-08-13T09:29:06.699Z,2.70
2018-08-13T09:32:16.210Z,3.17
2018-08-13T09:34:56.011Z,3.43
2018-08-13T09:37:24.172Z,3.37
2018-08-13T09:39:52.328Z,2.60
2018-08-13T09:42:20.407Z,4.07
2018-08-13T09:44:48.510Z,3.33
2018-08-13T09:47:16.958Z,2.33
2018-08-13T09:49:45.059Z,2.87
2018-08-13T09:52:13.176Z,5.17
2018-08-13T09:54:41.575Z,2.67
2018-08-13T09:57:09.746Z,2.77
2018-08-13T09:59:37.850Z,3.77
2018-08-13T10:02:05.984Z,3.80
2018-08-13T10:04:34.091Z,2.43
2018-08-13T10:07:02.375Z,2.07
2018-08-13T10:09:30.502Z,1.97
2018-08-13T10:11:58.630Z,2.87
2018-08-13T10:14:33.797Z,2.47
2018-08-13T10:17:01.954Z,5.20
2018-08-13T10:19:30.071Z,4.10
2018-08-13T10:21:58.313Z,3.37
2018-08-13T10:24:26.859Z,2.00
2018-08-13T10:26:54.974Z,2.60
2018-08-13T10:29:23.094Z,2.87
2018-08-13T10:31:51.211Z,2.83
2018-08-13T10:34:19.439Z,4.13
2018-08-13T10:36:47.560Z,3.40
2018-08-13T10:39:15.719Z,2.80
2018-08-13T10:41:43.835Z,2.43
2018-08-13T10:44:12.122Z,1.93
2018-08-13T10:46:40.242Z,2.33
2018-08-13T10:49:08.460Z,1.97
2018-08-13T10:51:36.580Z,2.23
2018-08-13T10:54:04.703Z,1.90
2018-08-13T10:56:32.832Z,1.97
2018-08-13T10:59:01.027Z,2.00
2018-08-13T11:01:29.135Z,2.20
2018-08-13T11:03:57.260Z,2.13
2018-08-13T11:06:25.438Z,2.50
2018-08-13T11:08:53.578Z,2.10
2018-08-13T11:11:21.710Z,1.90
2018-08-13T11:13:50.627Z,2.50
2018-08-13T11:16:18.751Z,4.40
2018-08-13T11:18:46.893Z,1.50
2018-08-13T11:21:15.007Z,1.87
2018-08-13T11:23:43.149Z,1.83
2018-08-13T11:26:11.335Z,2.20
2018-08-13T11:28:39.517Z,1.60
2018-08-13T11:31:07.824Z,1.50
2018-08-13T11:33:36.007Z,1.33
2018-08-13T11:36:04.224Z,2.43
2018-08-13T11:38:33.533Z,1.47
2018-08-13T11:41:01.680Z,1.37
2018-08-13T11:43:29.879Z,1.40
2018-08-13T11:45:58.026Z,1.40
2018-08-13T11:48:26.157Z,1.40
2018-08-13T11:50:54.262Z,2.30
2018-08-13T11:53:22.400Z,1.67
2018-08-13T11:55:50.675Z,2.30
2018-08-13T11:58:18.782Z,2.13
2018-08-13T12:00:47.783Z,1.40
2018-08-13T12:03:15.910Z,2.23
2018-08-13T12:05:44.027Z,3.10
2018-08-13T12:08:12.996Z,1.77
2018-08-13T12:11:18.395Z,3.47
2018-08-13T12:13:46.998Z,3.00
2018-08-13T12:16:15.125Z,2.87
2018-08-13T12:18:46.925Z,2.40
2018-08-13T12:21:15.551Z,3.07
2018-08-13T12:23:43.708Z,2.53
2018-08-13T12:26:11.974Z,1.60
2018-08-13T12:28:40.115Z,2.80
2018-08-13T12:31:08.246Z,3.53
2018-08-13T12:33:36.455Z,1.60
2018-08-13T12:36:04.587Z,1.50
2018-08-13T12:38:32.753Z,2.07
2018-08-13T12:41:00.952Z,1.43
2018-08-13T12:43:29.051Z,1.57
2018-08-13T12:45:57.282Z,2.40
2018-08-13T12:48:25.438Z,1.37
2018-08-13T12:50:53.666Z,1.65
2018-08-13T12:53:21.851Z,2.17
2018-08-13T12:55:50.062Z,4.20
2018-08-13T12:58:18.209Z,1.60
2018-08-13T13:00:50.566Z,1.30
2018-08-13T13:03:18.913Z,1.50
2018-08-13T13:05:47.050Z,1.42
2018-08-13T13:08:15.178Z,1.70
2018-08-13T13:10:43.319Z,1.55
2018-08-13T13:13:11.435Z,2.77
2018-08-13T13:15:39.578Z,3.77
2018-08-13T13:18:07.697Z,1.57
2018-08-13T13:20:35.934Z,4.00
2018-08-13T13:23:03.955Z,1.40
2018-08-13T13:25:32.101Z,2.07
2018-08-13T13:28:00.250Z,1.22
2018-08-13T13:30:28.417Z,1.73
2018-08-13T13:32:56.533Z,1.62
2018-08-13T13:35:24.684Z,1.40
2018-08-13T13:37:52.816Z,1.70
2018-08-13T13:40:20.968Z,2.00
2018-08-13T13:42:49.274Z,2.20
2018-08-13T13:45:17.810Z,2.07
2018-08-13T13:47:46.070Z,1.93
2018-08-13T13:50:15.447Z,1.77
2018-08-13T13:52:43.969Z,2.07
2018-08-13T13:55:12.233Z,2.70
2018-08-13T13:57:40.363Z,2.33
2018-08-13T14:00:13.486Z,3.40
2018-08-13T14:02:41.898Z,2.10
2018-08-13T14:05:10.116Z,1.40
2018-08-13T14:07:38.235Z,4.10
2018-08-13T14:10:07.849Z,2.90
2018-08-13T14:12:35.968Z,2.30
2018-08-13T14:15:04.898Z,3.67
2018-08-13T14:17:33.166Z,1.60
2018-08-13T14:20:01.189Z,1.40
2018-08-13T14:22:29.298Z,2.60
2018-08-13T14:24:57.477Z,1.50
2018-08-13T14:27:25.595Z,1.60
2018-08-13T14:29:53.730Z,1.50
2018-08-13T14:32:21.863Z,1.33
2018-08-13T14:34:50.086Z,2.93
2018-08-13T14:37:18.147Z,2.20
2018-08-13T14:39:46.277Z,2.23
2018-08-13T14:42:14.411Z,1.80
2018-08-13T14:44:42.593Z,2.00
2018-08-13T14:47:11.025Z,3.27
2018-08-13T14:49:39.142Z,2.03
2018-08-13T14:52:07.299Z,2.03
2018-08-13T14:54:35.426Z,4.10
2018-08-13T14:57:03.568Z,3.27
2018-08-13T14:59:31.761Z,2.30
2018-08-13T15:01:59.890Z,1.43
2018-08-13T15:04:28.018Z,2.27
2018-08-13T15:06:56.147Z,1.30
2018-08-13T15:09:24.262Z,2.70
2018-08-13T15:11:52.646Z,2.20
2018-08-13T15:14:20.835Z,1.70
2018-08-13T15:16:48.975Z,2.30
2018-08-13T15:19:17.163Z,1.40
2018-08-13T15:21:45.270Z,1.37
2018-08-13T15:24:13.406Z,1.37
2018-08-13T15:26:41.618Z,2.27
2018-08-13T15:29:09.744Z,2.77
2018-08-13T15:31:37.875Z,2.50
2018-08-13T15:34:06.211Z,2.50
2018-08-13T15:36:34.470Z,1.63
2018-08-13T15:39:02.654Z,2.37
2018-08-13T15:41:30.787Z,1.90
2018-08-13T15:43:58.905Z,1.60
2018-08-13T15:46:27.029Z,1.60
2018-08-13T15:48:55.155Z,1.40
2018-08-13T15:51:23.298Z,1.50
2018-08-13T15:53:51.416Z,1.73
2018-08-13T15:56:19.556Z,1.67
2018-08-13T15:58:47.689Z,1.70
2018-08-13T16:01:15.826Z,1.60
2018-08-13T16:03:43.964Z,2.53
2018-08-13T16:06:12.126Z,2.43
2018-08-13T16:08:40.246Z,5.07
2018-08-13T16:11:08.792Z,1.60
2018-08-13T16:13:36.910Z,1.60
2018-08-13T16:16:05.107Z,1.80
2018-08-13T16:18:33.235Z,2.03
2018-08-13T16:21:03.339Z,2.20
2018-08-13T16:23:31.944Z,1.70
2018-08-13T16:26:01.001Z,2.90
2018-08-13T16:28:30.004Z,2.23
2018-08-13T16:30:59.417Z,3.03
2018-08-13T16:33:27.801Z,3.33
2018-08-13T16:35:57.283Z,2.07
2018-08-13T16:38:27.161Z,2.53
2018-08-13T16:40:56.270Z,2.27
2018-08-13T16:43:24.581Z,2.33
2018-08-13T16:45:53.264Z,3.23
2018-08-13T16:48:21.523Z,2.10
2018-08-13T16:50:50.100Z,2.17
2018-08-13T16:53:18.317Z,3.40
2018-08-13T16:55:46.919Z,2.50
2018-08-13T16:58:15.244Z,2.77
2018-08-13T17:00:43.593Z,2.63
2018-08-13T17:03:13.197Z,2.63
2018-08-13T17:05:42.460Z,2.50
2018-08-13T17:08:11.813Z,2.70
2018-08-13T17:10:40.576Z,2.93
2018-08-13T17:13:09.034Z,2.60
2018-08-13T17:15:37.406Z,2.73
2018-08-13T17:18:06.087Z,3.07
2018-08-13T17:20:37.250Z,2.43
2018-08-13T17:23:06.478Z,3.77
2018-08-13T17:25:35.297Z,2.60
2018-08-13T17:28:03.558Z,3.70
2018-08-13T17:30:31.753Z,2.70
2018-08-13T17:33:00.800Z,3.07
2018-08-13T17:35:32.085Z,2.73
2018-08-13T17:38:00.663Z,3.97
2018-08-13T17:40:29.221Z,3.60
2018-08-13T17:42:57.502Z,3.00
2018-08-13T17:45:25.699Z,3.20
2018-08-13T17:47:53.826Z,3.13
2018-08-13T17:50:22.347Z,2.80
2018-08-13T17:52:50.503Z,2.73
2018-08-13T17:55:18.821Z,2.60
2018-08-13T17:57:47.132Z,2.50
2018-08-13T18:00:17.576Z,3.20
2018-08-13T18:02:45.739Z,3.33
2018-08-13T18:05:16.079Z,2.57
2018-08-13T18:07:44.370Z,2.80
2018-08-13T18:10:15.547Z,3.07
2018-08-13T18:12:43.684Z,2.97
2018-08-13T18:15:14.195Z,2.37
2018-08-13T18:17:42.723Z,2.50
2018-08-13T18:20:11.365Z,2.13
2018-08-13T18:22:39.503Z,2.77
2018-08-13T18:25:09.159Z,2.07
2018-08-13T18:27:37.512Z,3.57
2018-08-13T18:30:07.997Z,2.63
2018-08-13T18:32:36.268Z,3.43
2018-08-13T18:35:04.975Z,2.43
2018-08-13T18:37:33.133Z,2.13
2018-08-13T18:40:01.281Z,2.10
2018-08-13T18:42:29.407Z,2.90
2018-08-13T18:44:57.563Z,2.30
2018-08-13T18:47:25.681Z,4.00
2018-08-13T18:49:53.821Z,2.23
2018-08-13T18:52:21.951Z,2.43
2018-08-13T18:54:50.085Z,2.37
2018-08-13T18:57:18.224Z,2.77
2018-08-13T18:59:46.359Z,2.87
2018-08-13T19:02:14.487Z,2.60
2018-08-13T19:04:42.647Z,3.40
2018-08-13T19:07:10.875Z,2.70
2018-08-13T19:09:39.016Z,2.70
2018-08-13T19:12:07.168Z,3.07
2018-08-13T19:14:35.300Z,2.90
2018-08-13T19:17:03.433Z,2.97
2018-08-13T19:19:31.571Z,3.17
2018-08-13T19:21:59.797Z,4.07
2018-08-13T19:24:27.950Z,3.93
2018-08-13T19:26:56.073Z,4.23
2018-08-13T19:29:24.223Z,4.27
2018-08-13T19:31:52.351Z,4.40
2018-08-13T19:34:20.487Z,4.50
2018-08-13T19:36:48.600Z,4.53
2018-08-13T19:39:16.738Z,4.80
2018-08-13T19:41:44.875Z,4.70
2018-08-13T19:44:13.003Z,6.20
2018-08-13T19:46:41.129Z,4.40
2018-08-13T19:49:09.244Z,4.97
2018-08-13T19:51:38.334Z,4.60
2018-08-13T19:54:07.766Z,5.40
2018-08-13T19:56:35.982Z,5.23
2018-08-13T19:59:04.145Z,4.73
2018-08-13T20:01:32.427Z,5.60
2018-08-13T20:04:00.555Z,5.37
2018-08-13T20:06:28.688Z,5.30
2018-08-13T20:08:56.831Z,5.50
2018-08-13T20:11:24.971Z,4.97
2018-08-13T20:13:53.092Z,5.23
2018-08-13T20:16:21.244Z,5.67
2018-08-13T20:18:49.367Z,5.63
2018-08-13T20:21:17.507Z,5.30
2018-08-13T20:23:45.652Z,5.07
2018-08-13T20:26:13.762Z,4.97
2018-08-13T20:28:41.876Z,5.20
2018-08-13T20:31:10.016Z,5.53
2018-08-13T20:33:38.134Z,4.83
2018-08-13T20:36:06.263Z,4.93
2018-08-13T20:38:34.380Z,5.40
2018-08-13T20:41:02.523Z,5.60
2018-08-13T20:43:30.650Z,5.53
2018-08-13T20:45:58.802Z,5.40
2018-08-13T20:48:26.917Z,5.37
2018-08-13T20:50:55.039Z,5.10
2018-08-13T20:53:23.151Z,5.97
2018-08-13T20:55:51.280Z,6.33
2018-08-13T20:58:19.834Z,6.87
2018-08-13T21:00:47.971Z,6.43
2018-08-13T21:03:16.096Z,6.00
2018-08-13T21:05:44.227Z,6.93
2018-08-13T21:08:12.346Z,6.30
2018-08-13T21:10:40.496Z,6.87
2018-08-13T21:13:08.687Z,6.67
2018-08-13T21:15:36.814Z,6.83
2018-08-13T21:18:05.013Z,7.63
2018-08-13T21:20:33.150Z,8.20
2018-08-13T21:23:01.255Z,8.30
2018-08-13T21:25:29.620Z,8.53
2018-08-13T21:27:57.709Z,7.77
2018-08-13T21:30:25.836Z,8.10
2018-08-13T21:32:53.958Z,9.77
2018-08-13T21:35:23.734Z,8.80
2018-08-13T21:37:52.171Z,9.60
2018-08-13T21:40:20.402Z,9.43
2018-08-13T21:42:49.124Z,10.13
2018-08-13T21:45:17.247Z,10.47
2018-08-13T21:47:45.502Z,9.97
2018-08-13T21:50:17.886Z,9.87
2018-08-13T21:52:46.310Z,10.43
2018-08-13T21:55:14.436Z,9.30
2018-08-13T21:57:42.578Z,9.30
2018-08-13T22:00:21.307Z,9.17
2018-08-13T22:02:49.442Z,9.40
2018-08-13T22:05:17.686Z,8.87
2018-08-13T22:07:46.054Z,11.83
2018-08-13T22:10:14.181Z,9.60
2018-08-13T22:12:42.303Z,9.27
2018-08-13T22:15:22.118Z,9.03
2018-08-13T22:17:50.239Z,9.53
2018-08-13T22:20:18.411Z,8.77
2018-08-13T22:22:46.954Z,9.37
2018-08-13T22:25:17.440Z,9.70
2018-08-13T22:27:45.575Z,9.60
2018-08-13T22:30:13.696Z,9.87
2018-08-13T22:32:41.811Z,9.93
2018-08-13T22:35:10.404Z,9.83
2018-08-13T22:37:40.168Z,9.87
2018-08-13T22:40:12.718Z,10.13
2018-08-13T22:42:41.590Z,10.13
2018-08-13T22:45:09.715Z,11.57
2018-08-13T22:47:38.822Z,9.70
2018-08-13T22:50:08.553Z,10.43
2018-08-13T22:52:37.048Z,10.60
2018-08-13T22:55:06.583Z,9.60
2018-08-13T22:57:34.716Z,9.77
2018-08-13T23:00:02.956Z,11.13
2018-08-13T23:02:31.099Z,11.87
2018-08-13T23:04:59.236Z,13.10
2018-08-13T23:07:27.351Z,13.43
2018-08-13T23:09:55.483Z,14.13
2018-08-13T23:12:23.690Z,14.50
2018-08-13T23:14:51.837Z,16.10
2018-08-13T23:17:19.975Z,16.93
2018-08-13T23:19:48.106Z,16.33
2018-08-13T23:23:00.539Z,17.20
2018-08-13T23:25:29.317Z,16.73
2018-08-13T23:27:58.533Z,17.73
2018-08-13T23:30:26.721Z,17.00
2018-08-13T23:32:55.704Z,17.33
2018-08-13T23:35:24.663Z,17.47
2018-08-13T23:37:53.263Z,16.70
2018-08-13T23:40:21.538Z,16.97
2018-08-13T23:42:49.675Z,17.30
2018-08-13T23:45:19.826Z,18.47
2018-08-13T23:47:47.983Z,16.20
2018-08-13T23:50:17.974Z,16.03
2018-08-13T23:52:46.456Z,17.67
2018-08-13T23:55:16.759Z,16.93
2018-08-13T23:57:44.954Z,18.37
